Time;durP1;ratioP1;P1;durP2;ratioP2;P2;SDS_P1;SDS_P2;PMS_P1;PMS_P2;Temp;Humidity;BMP_temperature;BMP_pressure;BME280_temperature;BME280_humidity;BME280_pressure;Samples;Min_cycle;Max_cycle;Signal;HPM_P1;HPM_P2
2023/01/25 00:01:33;;;;;;;4.32;3.53;;;;;;;19.30;48.74;98493.03;10475631;28;20037;-75
2023/01/25 00:06:53;;;;;;;3.90;3.47;;;;;;;19.28;48.75;98483.63;10476102;28;20045;-74
2023/01/25 00:12:13;;;;;;;3.88;3.00;;;;;;;19.28;48.68;98489.03;10460888;28;20045;-75
2023/01/25 00:17:32;;;;;;;4.07;3.33;;;;;;;19.26;48.69;98486.59;10475949;28;20045;-75
2023/01/25 00:22:51;;;;;;;3.78;3.30;;;;;;;19.24;48.79;98487.97;10460303;28;20103;-75
2023/01/25 00:28:11;;;;;;;4.32;3.33;;;;;;;19.22;48.76;98484.75;10466552;28;20060;-75
2023/01/25 00:33:36;;;;;;;4.25;3.53;;;;;;;19.20;48.59;98482.31;10474263;28;20048;-75
2023/01/25 00:38:56;;;;;;;3.78;3.20;;;;;;;19.19;48.60;98488.81;10473602;28;20045;-75
2023/01/25 00:44:16;;;;;;;4.10;3.70;;;;;;;19.17;48.66;98478.28;10474825;28;20045;-75
2023/01/25 00:49:37;;;;;;;4.05;3.60;;;;;;;19.16;48.71;98468.56;10473550;28;20041;-75
2023/01/25 00:54:56;;;;;;;3.35;3.05;;;;;;;19.13;48.65;98466.44;10459800;28;20041;-75
2023/01/25 01:00:17;;;;;;;4.00;3.60;;;;;;;19.11;48.58;98465.91;10473329;28;20048;-75
2023/01/25 01:05:36;;;;;;;4.00;3.50;;;;;;;19.11;48.53;98470.50;10459058;28;20041;-75
2023/01/25 01:11:00;;;;;;;4.40;3.53;;;;;;;19.09;48.70;98464.56;10473828;28;20045;-75
2023/01/25 01:16:19;;;;;;;3.85;3.45;;;;;;;19.08;48.62;98471.06;10458672;28;20087;-75
2023/01/25 01:21:39;;;;;;;4.15;3.75;;;;;;;19.07;48.60;98469.44;10472449;28;20408;-74
2023/01/25 01:26:58;;;;;;;4.50;3.63;;;;;;;19.04;48.67;98470.81;10467689;28;20053;-75
2023/01/25 01:32:17;;;;;;;3.97;3.55;;;;;;;19.03;48.47;98469.19;10472124;28;20041;-74
2023/01/25 01:37:41;;;;;;;4.32;3.50;;;;;;;19.02;48.44;98464.88;10471896;28;20451;-75
2023/01/25 01:43:06;;;;;;;3.22;2.92;;;;;;;19.00;48.44;98456.25;10457582;28;20041;-75
2023/01/25 01:48:53;;;;;;;4.82;3.33;;;;;;;18.98;48.43;98463.03;10457272;28;20044;-75
2023/01/25 01:54:39;;;;;;;3.83;3.30;;;;;;;18.97;48.42;98459.50;10443260;28;20550;-75
2023/01/25 02:00:09;;;;;;;3.75;3.03;;;;;;;18.96;48.65;98466.81;10471061;28;20041;-75
2023/01/25 02:05:41;;;;;;;4.13;3.72;;;;;;;18.94;48.52;98462.78;10457680;28;20040;-75
2023/01/25 02:11:03;;;;;;;4.30;3.38;;;;;;;18.93;48.61;98453.06;10456485;28;20440;-75
2023/01/25 02:16:25;;;;;;;3.60;3.30;;;;;;;18.91;48.45;98456.03;10470188;28;20094;-74
2023/01/25 02:21:46;;;;;;;3.80;3.38;;;;;;;18.89;48.42;98455.50;10471660;28;20055;-75
2023/01/25 02:27:05;;;;;;;3.38;3.08;;;;;;;18.88;48.43;98453.09;10464749;28;20053;-75
2023/01/25 02:32:25;;;;;;;5.00;3.58;;;;;;;18.85;48.30;98440.16;10470393;28;20048;-75
2023/01/25 02:37:46;;;;;;;3.85;3.45;;;;;;;18.85;48.59;98443.63;10455508;28;20451;-75
2023/01/25 02:43:05;;;;;;;3.60;3.30;;;;;;;18.83;48.40;98445.00;10469012;28;20044;-75
2023/01/25 02:48:28;;;;;;;3.80;3.40;;;;;;;18.83;48.45;98440.41;10455252;28;20385;-75
2023/01/25 02:53:48;;;;;;;3.65;3.28;;;;;;;18.79;48.50;98431.22;10468855;28;20102;-75
2023/01/25 02:59:09;;;;;;;3.97;3.53;;;;;;;18.78;48.57;98437.72;10454082;28;20476;-75
2023/01/25 03:04:28;;;;;;;3.45;3.13;;;;;;;18.76;48.45;98419.09;10468520;28;20033;-75
2023/01/25 03:09:48;;;;;;;4.00;3.60;;;;;;;18.75;48.47;98403.97;10453873;28;20048;-75
2023/01/25 03:15:08;;;;;;;3.72;3.22;;;;;;;18.73;48.42;98395.34;10468297;28;20439;-75
2023/01/25 03:20:27;;;;;;;3.65;3.25;;;;;;;18.74;48.47;98398.88;10454072;28;20033;-75
2023/01/25 03:25:47;;;;;;;3.78;3.33;;;;;;;18.72;48.40;98390.25;10453352;28;20041;-75
2023/01/25 03:31:12;;;;;;;3.47;3.17;;;;;;;18.70;48.32;98390.53;10454247;28;20516;-75
2023/01/25 03:36:32;;;;;;;3.50;3.20;;;;;;;18.68;48.35;98390.00;10439958;28;20056;-75
2023/01/25 03:41:52;;;;;;;3.65;3.22;;;;;;;18.68;48.50;98381.06;10467499;28;20048;-75
2023/01/25 03:47:12;;;;;;;4.25;3.33;;;;;;;18.65;48.37;98371.66;10453525;28;20403;-75
2023/01/25 03:52:37;;;;;;;3.65;3.10;;;;;;;18.66;48.37;98381.38;10453466;28;20049;-75
2023/01/25 03:57:57;;;;;;;3.70;3.40;;;;;;;18.63;48.33;98364.94;10453437;28;20051;-75
2023/01/25 04:03:20;;;;;;;3.72;3.35;;;;;;;18.62;48.41;98357.91;10467304;28;20407;-75
2023/01/25 04:08:40;;;;;;;5.30;3.55;;;;;;;18.60;48.33;98363.59;10467223;28;20052;-75
2023/01/25 04:14:02;;;;;;;3.95;3.35;;;;;;;18.59;48.35;98353.88;10461972;28;20132;-75
2023/01/25 04:19:30;;;;;;;3.75;3.35;;;;;;;18.58;48.46;98354.97;10461722;28;20407;-75
2023/01/25 04:24:52;;;;;;;3.30;3.00;;;;;;;18.55;48.35;98348.22;10460695;28;20048;-76
2023/01/25 04:30:13;;;;;;;3.75;3.35;;;;;;;18.55;48.40;98342.84;10434151;28;20056;-75
2023/01/25 04:35:34;;;;;;;3.30;3.00;;;;;;;18.53;48.12;98349.59;10474030;28;20041;-75
2023/01/25 04:40:54;;;;;;;3.70;3.30;;;;;;;18.52;48.20;98339.88;10473872;28;20041;-75
2023/01/25 04:46:15;;;;;;;3.80;3.15;;;;;;;18.50;48.17;98328.56;10459785;28;20044;-75
2023/01/25 04:51:35;;;;;;;3.63;3.25;;;;;;;18.49;48.21;98335.88;10473631;28;20100;-75
2023/01/25 04:56:55;;;;;;;3.55;3.05;;;;;;;18.48;48.51;98341.53;10459652;28;20060;-75
2023/01/25 05:02:14;;;;;;;4.50;3.83;;;;;;;18.46;48.21;98335.59;10473463;28;20044;-74
2023/01/25 05:07:34;;;;;;;3.38;3.08;;;;;;;18.45;48.32;98332.13;10473113;28;20223;-78
2023/01/25 05:12:54;;;;;;;3.40;3.10;;;;;;;18.45;48.46;98323.22;10445076;28;20044;-77
2023/01/25 05:18:14;;;;;;;3.80;3.47;;;;;;;18.43;48.90;98328.88;10431131;28;20102;-77
2023/01/25 05:23:33;;;;;;;3.60;3.28;;;;;;;18.44;48.95;98332.38;10457941;28;20048;-77
2023/01/25 05:28:53;;;;;;;3.83;3.20;;;;;;;18.43;48.60;98331.59;10463416;28;20076;-77
2023/01/25 05:34:25;;;;;;;3.55;3.25;;;;;;;18.45;49.05;98325.91;10433696;28;20041;-76
2023/01/25 05:39:46;;;;;;;3.70;3.30;;;;;;;18.46;47.89;98331.00;10457799;28;20476;-79
2023/01/25 05:45:06;;;;;;;5.47;4.68;;;;;;;18.46;48.33;98333.72;10471549;28;20106;-79
2023/01/25 05:50:27;;;;;;;5.38;4.30;;;;;;;18.48;48.21;98333.44;10443385;28;20112;-79
2023/01/25 05:56:06;;;;;;;7.88;4.40;;;;;;;18.50;48.31;98326.69;10458635;28;20045;-79
2023/01/25 06:01:27;;;;;;;5.20;4.20;;;;;;;18.53;48.56;98336.13;10456950;28;20053;-75
2023/01/25 06:06:50;;;;;;;19.27;6.93;;;;;;;18.56;48.77;98324.75;10456945;28;20041;-75
2023/01/25 06:12:10;;;;;;;8.85;5.13;;;;;;;18.58;48.83;98338.75;10470276;28;20107;-74
2023/01/25 06:17:30;;;;;;;9.30;5.43;;;;;;;18.60;48.70;98343.88;10456084;28;20480;-74
2023/01/25 06:22:57;;;;;;;12.13;5.28;;;;;;;18.61;48.92;98340.91;10456715;28;20037;-74
2023/01/25 06:28:16;;;;;;;13.95;6.47;;;;;;;18.62;48.89;98334.44;10448099;28;20053;-75
2023/01/25 06:33:36;;;;;;;14.77;6.88;;;;;;;18.62;48.93;98318.25;10470236;28;20048;-74
2023/01/25 06:38:57;;;;;;;17.58;6.95;;;;;;;18.64;49.00;98334.97;10455315;28;20045;-74
2023/01/25 06:44:16;;;;;;;14.20;7.32;;;;;;;18.65;48.97;98325.78;10469248;28;20453;-74
2023/01/25 06:49:35;;;;;;;15.85;7.20;;;;;;;18.67;49.21;98312.78;10469065;28;20048;-75
2023/01/25 06:54:55;;;;;;;17.17;7.45;;;;;;;18.69;49.22;98312.53;10469694;28;20083;-74
2023/01/25 07:00:15;;;;;;;17.23;7.65;;;;;;;18.72;49.02;98315.47;10469482;28;20056;-74
2023/01/25 07:05:35;;;;;;;19.27;8.50;;;;;;;18.74;49.15;98305.19;10468459;28;20045;-74
2023/01/25 07:10:56;;;;;;;17.30;8.05;;;;;;;18.77;49.09;98306.50;10468207;28;20045;-74
2023/01/25 07:16:19;;;;;;;21.80;8.23;;;;;;;18.81;49.06;98304.88;10468024;28;20052;-74
2023/01/25 07:21:39;;;;;;;19.95;8.15;;;;;;;18.85;49.00;98308.63;10454028;28;20044;-74
2023/01/25 07:26:58;;;;;;;18.88;8.00;;;;;;;18.87;49.09;98306.44;10448048;28;20408;-74
2023/01/25 07:32:18;;;;;;;16.55;7.25;;;;;;;18.91;49.08;98309.41;10467601;28;20045;-74
2023/01/25 07:37:37;;;;;;;16.45;8.05;;;;;;;18.93;48.98;98302.66;10453757;28;20119;-75
2023/01/25 07:42:57;;;;;;;16.27;7.80;;;;;;;18.98;48.80;98301.78;10439686;28;20106;-75
2023/01/25 07:48:18;;;;;;;14.57;7.38;;;;;;;19.01;49.28;98301.19;10446959;28;20052;-74
2023/01/25 07:53:39;;;;;;;15.82;7.75;;;;;;;19.06;48.98;98303.06;10476545;28;20048;-75
2023/01/25 07:59:01;;;;;;;14.35;7.55;;;;;;;19.09;48.82;98297.91;10475051;28;20060;-75
2023/01/25 08:04:20;;;;;;;15.07;7.40;;;;;;;19.12;49.00;98301.94;10476036;28;20040;-74
2023/01/25 08:09:41;;;;;;;15.98;7.72;;;;;;;19.16;49.05;98292.16;10460806;28;20044;-74
2023/01/25 08:15:00;;;;;;;15.18;7.32;;;;;;;19.20;48.95;98297.81;10460705;28;20045;-74
2023/01/25 08:20:21;;;;;;;11.45;7.05;;;;;;;19.22;49.02;98292.91;10474548;28;20064;-74
2023/01/25 08:25:41;;;;;;;13.30;7.20;;;;;;;19.23;49.15;98289.94;10475122;28;20404;-75
2023/01/25 08:31:05;;;;;;;12.68;7.38;;;;;;;19.26;49.17;98285.84;10460169;28;20048;-74
2023/01/25 08:36:26;;;;;;;15.75;7.40;;;;;;;19.27;49.22;98287.47;10473912;28;20045;-74
2023/01/25 08:41:46;;;;;;;11.32;6.72;;;;;;;19.28;49.17;98273.66;10460018;28;20052;-74
2023/01/25 08:47:05;;;;;;;13.63;7.55;;;;;;;19.30;49.28;98270.69;10474414;28;20044;-74
2023/01/25 08:52:25;;;;;;;12.60;7.25;;;;;;;19.32;49.16;98268.50;10473371;28;20495;-74
2023/01/25 08:57:45;;;;;;;14.05;6.88;;;;;;;19.36;49.35;98261.41;10471933;28;20056;-75
2023/01/25 09:03:05;;;;;;;11.70;7.50;;;;;;;19.38;49.05;98253.81;10458853;28;20041;-74
2023/01/25 09:08:25;;;;;;;12.90;6.85;;;;;;;19.40;48.94;98258.94;10458696;28;20067;-74
2023/01/25 09:13:45;;;;;;;11.52;6.72;;;;;;;19.42;48.81;98251.38;10473472;28;20041;-74
2023/01/25 09:19:05;;;;;;;11.88;6.40;;;;;;;19.45;48.77;98248.91;10472279;28;20052;-74
2023/01/25 09:24:24;;;;;;;12.55;6.75;;;;;;;19.48;48.85;98240.22;10471771;28;20102;-74
2023/01/25 09:29:43;;;;;;;10.95;6.50;;;;;;;19.51;48.73;98239.63;10459980;28;20053;-74
2023/01/25 09:35:03;;;;;;;11.60;6.18;;;;;;;19.54;48.69;98239.06;10457211;28;20412;-74
2023/01/25 09:40:26;;;;;;;11.40;6.43;;;;;;;19.57;48.63;98229.56;10471066;28;20049;-75
2023/01/25 09:45:46;;;;;;;12.68;6.85;;;;;;;19.61;48.57;98233.28;10457352;28;20049;-74
2023/01/25 09:51:18;;;;;;;10.45;5.93;;;;;;;19.64;48.60;98232.72;10457372;28;20458;-74
2023/01/25 09:56:38;;;;;;;10.40;5.65;;;;;;;19.68;48.42;98222.13;10471290;28;20403;-74
2023/01/25 10:02:02;;;;;;;37.47;12.23;;;;;;;19.71;48.92;98211.56;10470947;28;20044;-74
2023/01/25 10:07:27;;;;;;;35.65;10.90;;;;;;;19.77;49.41;98211.50;10470032;28;20045;-75
2023/01/25 10:12:46;;;;;;;25.33;9.77;;;;;;;19.81;49.04;98207.91;10456298;28;20479;-75
2023/01/25 10:18:20;;;;;;;18.58;8.18;;;;;;;19.84;49.65;98199.22;10469972;28;20068;-75
2023/01/25 10:23:52;;;;;;;19.73;8.75;;;;;;;19.88;49.33;98191.34;10469953;28;20095;-74
2023/01/25 10:29:26;;;;;;;20.17;7.85;;;;;;;19.91;50.77;98183.41;10459587;28;20480;-74
2023/01/25 10:34:48;;;;;;;13.85;6.72;;;;;;;19.97;50.65;98173.34;10441760;28;20064;-74
2023/01/25 10:40:21;;;;;;;15.38;6.93;;;;;;;20.01;51.02;98176.25;10455688;28;20053;-74
2023/01/25 10:45:42;;;;;;;11.90;6.10;;;;;;;20.02;51.00;98159.75;10469496;28;20037;-74
2023/01/25 10:51:01;;;;;;;13.80;6.07;;;;;;;20.06;50.79;98163.47;10469419;28;20488;-74
2023/01/25 10:56:23;;;;;;;12.43;6.43;;;;;;;20.11;50.86;98159.88;10469922;28;20064;-75
2023/01/25 11:01:43;;;;;;;9.35;5.75;;;;;;;20.14;50.66;98153.88;10454633;28;20492;-74
2023/01/25 11:07:04;;;;;;;10.40;5.70;;;;;;;20.17;50.55;98142.47;10468588;28;20090;-74
2023/01/25 11:12:24;;;;;;;12.38;5.63;;;;;;;20.21;50.50;98139.97;10468751;28;20041;-74
2023/01/25 11:17:43;;;;;;;12.90;5.97;;;;;;;20.24;50.58;98132.06;10468337;28;20056;-74
2023/01/25 11:23:03;;;;;;;11.32;5.90;;;;;;;20.28;50.32;98130.38;10468308;28;20041;-74
2023/01/25 11:28:23;;;;;;;10.93;5.55;;;;;;;20.30;49.94;98120.03;10460581;28;20500;-74
2023/01/25 11:33:43;;;;;;;10.30;5.15;;;;;;;20.35;49.83;98128.09;10454032;28;20477;-74
2023/01/25 11:39:37;;;;;;;9.30;5.43;;;;;;;20.38;49.79;98115.06;10468867;28;20045;-74
2023/01/25 11:45:16;;;;;;;10.38;5.78;;;;;;;20.39;49.96;98093.13;10467339;28;20037;-74
2023/01/25 11:50:46;;;;;;;8.45;5.00;;;;;;;20.41;49.98;98082.81;10467500;28;20091;-74
2023/01/25 11:56:36;;;;;;;8.77;4.97;;;;;;;20.44;49.59;98075.97;10468111;28;20055;-74
2023/01/25 12:02:34;;;;;;;7.90;4.45;;;;;;;20.45;48.81;98072.19;10467717;28;20045;-74
2023/01/25 12:08:15;;;;;;;8.63;5.40;;;;;;;20.46;48.95;98061.03;10468462;28;20091;-74
2023/01/25 12:13:39;;;;;;;8.93;5.43;;;;;;;20.47;49.07;98035.59;10467480;28;20045;-75
2023/01/25 12:19:19;;;;;;;10.77;5.25;;;;;;;20.47;48.74;98023.97;10453493;28;20045;-74
2023/01/25 12:25:02;;;;;;;7.38;5.15;;;;;;;20.47;48.38;98005.00;10467499;28;20408;-74
2023/01/25 12:30:35;;;;;;;7.90;4.80;;;;;;;20.47;48.55;97988.78;10440921;28;20060;-72
2023/01/25 12:36:10;;;;;;;8.55;4.95;;;;;;;20.47;48.63;97988.78;10474780;28;20037;-75
2023/01/25 12:41:52;;;;;;;7.15;4.65;;;;;;;20.47;48.29;97983.34;10460193;28;20056;-75
2023/01/25 12:47:36;;;;;;;7.78;4.60;;;;;;;-146.19;100.00;65364.44;10476019;28;20045;-76
2023/01/25 12:53:25;;;;;;;6.60;4.80;;;;;;;-146.19;100.00;65364.44;10473462;28;20507;-75
2023/01/25 12:58:51;;;;;;;7.20;4.80;;;;;;;-146.19;100.00;65364.44;10473524;28;20488;-75
2023/01/25 13:04:32;;;;;;;5.97;4.40;;;;;;;-146.19;100.00;65364.44;10473516;28;20042;-76
2023/01/25 13:10:11;;;;;;;8.65;4.53;;;;;;;-146.19;100.00;65364.44;10473853;28;20484;-76
2023/01/25 13:15:42;;;;;;;6.72;4.40;;;;;;;-146.19;100.00;65364.44;10473803;28;20087;-76
2023/01/25 13:21:10;;;;;;;8.75;5.10;;;;;;;-146.19;100.00;65364.44;10430583;28;20060;-76
2023/01/25 13:26:37;;;;;;;6.57;4.30;;;;;;;-146.19;100.00;65364.44;10470049;28;20445;-76
2023/01/25 13:31:58;;;;;;;5.78;4.10;;;;;;;-146.19;100.00;65364.44;10458146;28;20302;-76
2023/01/25 13:37:22;;;;;;;8.10;4.57;;;;;;;-146.19;100.00;65364.44;10457674;28;20502;-76
2023/01/25 13:42:41;;;;;;;8.25;4.50;;;;;;;-146.19;100.00;65364.44;10470918;28;20040;-76
2023/01/25 13:48:15;;;;;;;4.65;4.07;;;;;;;-146.19;100.00;65364.44;10471170;28;20048;-76
2023/01/25 13:53:38;;;;;;;6.55;4.38;;;;;;;-146.19;100.00;65364.44;10458520;28;20217;-76
2023/01/25 13:58:58;;;;;;;7.15;4.22;;;;;;;-146.19;100.00;65364.44;10457254;28;20139;-76
2023/01/25 14:04:18;;;;;;;5.95;4.35;;;;;;;-146.19;100.00;65364.44;10470764;28;20045;-76
2023/01/25 14:09:41;;;;;;;5.60;4.10;;;;;;;20.47;48.29;97983.34;10470469;28;20471;-75
2023/01/25 14:15:19;;;;;;;6.65;4.30;;;;;;;20.33;48.17;97878.59;10470702;28;20045;-75
2023/01/25 14:20:40;;;;;;;4.90;3.80;;;;;;;20.33;48.22;97883.22;10471109;28;20052;-76
2023/01/25 14:26:00;;;;;;;5.40;3.95;;;;;;;20.32;48.16;97870.78;10454734;28;20041;-76
2023/01/25 14:31:38;;;;;;;5.30;3.72;;;;;;;20.31;48.02;97870.00;10469592;28;20040;-76
2023/01/25 14:37:19;;;;;;;4.27;3.83;;;;;;;20.29;48.10;97868.69;10469373;28;20491;-76
2023/01/25 14:42:38;;;;;;;7.32;4.32;;;;;;;20.28;47.71;97857.06;10469341;28;20041;-76
2023/01/25 14:47:58;;;;;;;5.45;4.00;;;;;;;20.26;47.69;97858.47;10455108;28;20052;-76
2023/01/25 14:53:22;;;;;;;5.38;4.30;;;;;;;20.24;47.95;97863.38;10468799;28;20045;-76
2023/01/25 14:58:42;;;;;;;6.50;4.30;;;;;;;20.22;47.71;97858.28;10468811;28;20051;-76
2023/01/25 15:04:02;;;;;;;6.07;4.13;;;;;;;20.21;47.76;97861.28;10468812;28;20045;-76
2023/01/25 15:09:36;;;;;;;4.95;4.20;;;;;;;20.19;47.61;97852.66;10469735;28;20044;-76
2023/01/25 15:14:57;;;;;;;5.45;4.20;;;;;;;20.18;47.79;97842.97;10468886;28;20045;-76
2023/01/25 15:20:25;;;;;;;9.77;6.13;;;;;;;20.14;46.44;97834.63;10468543;28;20099;-76
2023/01/25 15:25:52;;;;;;;5.03;4.35;;;;;;;20.12;46.93;97821.41;10468111;28;20043;-76
2023/01/25 15:31:27;;;;;;;5.13;4.40;;;;;;;20.10;46.94;97814.72;10469025;28;20049;-75
2023/01/25 15:36:46;;;;;;;5.03;4.03;;;;;;;20.09;47.19;97818.50;10467988;28;20041;-75
2023/01/25 15:42:07;;;;;;;4.53;4.05;;;;;;;20.08;47.30;97819.63;10467979;28;20131;-75
2023/01/25 15:47:27;;;;;;;5.97;4.72;;;;;;;20.07;47.27;97818.00;10467881;28;20045;-76
2023/01/25 15:52:47;;;;;;;5.25;4.00;;;;;;;20.05;47.16;97815.63;10439701;28;20418;-75
2023/01/25 15:58:10;;;;;;;5.70;4.60;;;;;;;20.04;47.08;97813.22;10453613;28;20045;-75
2023/01/25 16:03:31;;;;;;;7.18;6.10;;;;;;;20.01;44.36;97805.69;10468560;28;20044;-75
2023/01/25 16:08:50;;;;;;;5.15;4.65;;;;;;;19.99;45.14;97788.97;10459690;28;20041;-75
2023/01/25 16:14:10;;;;;;;7.05;5.22;;;;;;;19.99;46.59;97770.03;10461405;28;20040;-75
2023/01/25 16:19:30;;;;;;;10.18;5.88;;;;;;;20.01;47.41;97759.72;10461170;28;20040;-75
2023/01/25 16:24:50;;;;;;;15.82;6.43;;;;;;;20.01;48.21;97757.81;10474585;28;20400;-75
2023/01/25 16:30:19;;;;;;;10.00;6.43;;;;;;;20.04;49.36;97764.53;10447767;28;20053;-75
2023/01/25 16:35:38;;;;;;;12.23;6.00;;;;;;;20.05;49.97;97747.19;10460380;28;20140;-75
2023/01/25 16:40:58;;;;;;;13.68;6.30;;;;;;;20.08;49.80;97754.69;10475587;28;20041;-76
2023/01/25 16:46:22;;;;;;;9.88;6.20;;;;;;;20.07;50.37;97758.50;10475146;28;20068;-74
2023/01/25 16:51:44;;;;;;;8.18;6.25;;;;;;;20.10;51.21;97749.78;10474041;28;20534;-74
2023/01/25 16:57:03;;;;;;;9.52;5.80;;;;;;;20.11;50.72;97733.25;10460217;28;20049;-74
2023/01/25 17:02:23;;;;;;;7.68;5.45;;;;;;;20.12;50.03;97734.84;10474213;28;20041;-74
2023/01/25 17:07:42;;;;;;;7.53;5.93;;;;;;;20.12;50.13;97718.63;10473437;28;20037;-74
2023/01/25 17:13:02;;;;;;;8.18;6.03;;;;;;;20.17;50.11;97715.00;10458623;28;20045;-74
2023/01/25 17:18:21;;;;;;;7.65;5.70;;;;;;;20.17;49.96;97719.59;10471809;28;20052;-74
2023/01/25 17:23:41;;;;;;;7.20;5.50;;;;;;;20.18;49.93;97711.19;10472638;28;20041;-74
2023/01/25 17:29:01;;;;;;;6.85;5.43;;;;;;;20.21;49.98;97704.34;10449488;28;20511;-74
2023/01/25 17:34:21;;;;;;;8.82;5.50;;;;;;;20.23;49.99;97702.13;10473007;28;20102;-73
2023/01/25 17:39:40;;;;;;;7.93;5.22;;;;;;;20.24;49.86;97685.59;10473142;28;20044;-74
2023/01/25 17:45:00;;;;;;;6.40;4.93;;;;;;;20.25;49.95;97673.69;10473237;28;20048;-73
2023/01/25 17:50:19;;;;;;;7.28;5.55;;;;;;;20.26;49.88;97672.56;10471374;28;20060;-73
2023/01/25 17:55:38;;;;;;;9.20;4.88;;;;;;;20.28;50.03;97667.66;10471190;28;20484;-74
2023/01/25 18:00:58;;;;;;;9.63;5.60;;;;;;;20.28;50.38;97659.53;10472048;28;20048;-77
2023/01/25 18:06:19;;;;;;;9.00;4.95;;;;;;;20.30;50.39;97664.63;10457097;28;20415;-77
2023/01/25 18:11:39;;;;;;;8.32;5.30;;;;;;;20.29;50.49;97657.66;10457376;28;20045;-76
2023/01/25 18:17:00;;;;;;;13.30;5.20;;;;;;;20.29;50.17;97644.91;10470992;28;20545;-77
2023/01/25 18:22:19;;;;;;;8.00;5.22;;;;;;;20.29;50.39;97627.88;10471585;28;20048;-76
2023/01/25 18:27:38;;;;;;;5.95;4.63;;;;;;;20.28;50.45;97621.66;10465133;28;20080;-76
2023/01/25 18:32:58;;;;;;;6.43;5.00;;;;;;;20.28;50.51;97623.56;10470041;28;20048;-77
2023/01/25 18:38:17;;;;;;;7.72;4.40;;;;;;;20.29;50.59;97622.47;10469998;28;20048;-76
2023/01/25 18:43:37;;;;;;;6.32;4.50;;;;;;;20.29;50.51;97614.34;10469728;28;20048;-76
2023/01/25 18:48:57;;;;;;;5.38;4.60;;;;;;;20.28;50.70;97613.53;10470932;28;20045;-77
2023/01/25 18:54:16;;;;;;;7.00;4.35;;;;;;;20.27;50.58;97605.75;10470263;28;20114;-78
2023/01/25 18:59:36;;;;;;;8.15;5.05;;;;;;;20.26;51.03;97602.22;10470472;28;20060;-77
2023/01/25 19:04:55;;;;;;;8.25;5.13;;;;;;;20.26;51.22;97585.97;10470331;28;20495;-78
2023/01/25 19:10:16;;;;;;;6.28;4.47;;;;;;;20.25;51.26;97576.28;10455103;28;20045;-77
2023/01/25 19:15:36;;;;;;;8.60;4.97;;;;;;;20.27;51.36;97570.56;10470671;28;20045;-76
2023/01/25 19:20:55;;;;;;;5.82;4.15;;;;;;;20.25;51.49;97572.78;10468972;28;20184;-77
2023/01/25 19:26:17;;;;;;;6.90;4.70;;;;;;;20.26;51.69;97566.25;10464624;28;20049;-77
2023/01/25 19:31:36;;;;;;;8.48;4.68;;;;;;;20.24;51.66;97552.25;10468537;28;20419;-76
2023/01/25 19:36:57;;;;;;;5.05;4.20;;;;;;;20.23;51.67;97550.63;10468475;28;20055;-77
2023/01/25 19:42:17;;;;;;;6.90;4.85;;;;;;;20.21;51.84;97553.66;10472342;28;20048;-77
2023/01/25 19:47:36;;;;;;;7.18;4.43;;;;;;;20.20;51.87;97571.00;10463043;28;20041;-77
2023/01/25 19:52:56;;;;;;;7.03;4.65;;;;;;;20.21;51.62;97569.06;10477377;28;20056;-76
2023/01/25 19:58:15;;;;;;;5.65;4.22;;;;;;;20.19;51.76;97569.41;10476156;28;20507;-76
2023/01/25 20:03:35;;;;;;;5.78;4.45;;;;;;;20.17;51.80;97557.28;10476175;28;20041;-78
2023/01/25 20:08:55;;;;;;;6.90;4.40;;;;;;;20.17;52.05;97547.28;10475697;28;20047;-77
2023/01/25 20:14:15;;;;;;;5.32;4.07;;;;;;;20.15;51.93;97550.28;10476151;28;20087;-76
2023/01/25 20:19:36;;;;;;;6.20;4.28;;;;;;;20.15;52.05;97530.56;10475801;28;20048;-76
2023/01/25 20:24:55;;;;;;;4.72;4.20;;;;;;;20.13;51.99;97521.94;10475348;28;20041;-76
2023/01/25 20:30:15;;;;;;;5.63;4.28;;;;;;;20.11;51.98;97527.66;10463957;28;20103;-76
2023/01/25 20:35:34;;;;;;;5.90;4.35;;;;;;;20.11;51.99;97524.16;10461088;28;20041;-78
2023/01/25 20:41:00;;;;;;;6.60;4.47;;;;;;;20.10;52.02;97525.28;10460596;28;20094;-79
2023/01/25 20:46:20;;;;;;;5.43;4.20;;;;;;;20.08;52.01;97511.25;10474784;28;20408;-77
2023/01/25 20:51:41;;;;;;;5.15;4.00;;;;;;;20.07;52.01;97510.47;10474013;28;20041;-76
2023/01/25 20:57:02;;;;;;;6.70;5.43;;;;;;;20.05;51.10;97509.16;10460328;28;20048;-78
2023/01/25 21:02:22;;;;;;;6.70;5.25;;;;;;;20.04;51.63;97499.47;10459628;28;20454;-78
2023/01/25 21:07:42;;;;;;;6.43;4.68;;;;;;;20.03;51.62;97487.03;10473358;28;20123;-79
2023/01/25 21:13:02;;;;;;;6.45;5.03;;;;;;;20.00;51.46;97474.16;10473359;28;20396;-78
2023/01/25 21:18:21;;;;;;;7.32;5.10;;;;;;;19.99;51.70;97488.78;10473025;28;20044;-78
2023/01/25 21:23:43;;;;;;;7.30;5.35;;;;;;;19.98;51.71;97487.19;10474025;28;20484;-78
2023/01/25 21:29:04;;;;;;;6.30;4.72;;;;;;;19.95;51.66;97489.41;10463668;28;20057;-78
2023/01/25 21:34:24;;;;;;;7.93;5.38;;;;;;;19.95;51.73;97486.69;10472912;28;20044;-77
2023/01/25 21:39:43;;;;;;;8.48;5.28;;;;;;;19.93;51.72;97478.09;10471660;28;20055;-78
2023/01/25 21:56:19;;;;;;;9.95;5.63;;;;;;;19.89;52.29;97455.47;10472233;28;20546;-75
2023/01/25 22:01:39;;;;;;;8.57;5.57;;;;;;;19.89;51.77;97460.88;10471894;28;20503;-74
2023/01/25 22:06:59;;;;;;;10.13;5.22;;;;;;;19.87;51.89;97446.06;10470177;28;20094;-75
2023/01/25 22:12:19;;;;;;;9.75;6.00;;;;;;;19.85;51.87;97430.16;10470567;28;20396;-74
2023/01/25 22:17:38;;;;;;;9.35;5.90;;;;;;;19.84;51.86;97420.47;10471116;28;20484;-74
2023/01/25 22:22:58;;;;;;;8.55;5.63;;;;;;;19.82;52.01;97411.06;10455896;28;20044;-75
2023/01/25 22:28:18;;;;;;;9.55;5.85;;;;;;;19.79;51.91;97407.06;10463523;28;20068;-74
2023/01/25 22:33:38;;;;;;;9.75;5.60;;;;;;;19.80;52.24;97407.84;10442855;28;20083;-75
2023/01/25 22:39:01;;;;;;;7.65;5.40;;;;;;;19.77;52.39;97395.78;10469312;28;20049;-75
2023/01/25 22:44:20;;;;;;;8.70;5.53;;;;;;;19.76;52.50;97391.50;10469386;28;20048;-75
2023/01/25 22:49:40;;;;;;;7.13;5.03;;;;;;;19.75;52.64;97376.38;10454942;28;20059;-75
2023/01/25 22:54:59;;;;;;;8.43;5.47;;;;;;;19.73;52.51;97363.16;10454748;28;20107;-75
2023/01/25 23:00:18;;;;;;;9.77;5.68;;;;;;;19.71;52.56;97357.25;10469664;28;20103;-74
2023/01/25 23:05:38;;;;;;;7.68;5.15;;;;;;;19.70;52.55;97347.53;10468619;28;20106;-75
2023/01/25 23:10:59;;;;;;;8.25;4.95;;;;;;;19.70;52.60;97341.34;10468281;28;20044;-75
2023/01/25 23:16:19;;;;;;;8.30;5.13;;;;;;;19.69;52.73;97326.22;10467442;28;20037;-75
2023/01/25 23:21:38;;;;;;;9.15;5.20;;;;;;;19.66;52.63;97324.13;10455559;28;20040;-75
2023/01/25 23:26:58;;;;;;;8.57;5.05;;;;;;;19.64;52.48;97305.53;10464311;28;20095;-75
2023/01/25 23:32:17;;;;;;;6.47;4.93;;;;;;;19.64;52.35;97304.72;10469173;28;20048;-75
2023/01/25 23:37:37;;;;;;;6.80;4.82;;;;;;;19.63;52.41;97305.84;10467973;28;20056;-75
2023/01/25 23:42:56;;;;;;;7.63;4.90;;;;;;;19.61;52.32;97310.78;10467712;28;20052;-75
2023/01/25 23:48:16;;;;;;;6.90;5.10;;;;;;;19.59;52.36;97313.00;10453793;28;20099;-74
2023/01/25 23:53:36;;;;;;;6.13;4.75;;;;;;;19.58;52.27;97305.97;10467895;28;20041;-74
2023/01/25 23:58:56;;;;;;;6.97;4.45;;;;;;;19.56;52.28;97304.41;10467539;28;20048;-75
